sensor_id;sensor_type;location;lat;lon;timestamp;temperature;humidity
31991;DHT22;18508;49.386;8.370;2022-08-03T00:02:15;20.20;92.50
31991;DHT22;18508;49.386;8.370;2022-08-03T00:04:45;20.20;94.60
31991;DHT22;18508;49.386;8.370;2022-08-03T00:07:13;20.20;92.40
31991;DHT22;18508;49.386;8.370;2022-08-03T00:09:41;20.10;93.20
31991;DHT22;18508;49.386;8.370;2022-08-03T00:12:09;20.10;1.00
31991;DHT22;18508;49.386;8.370;2022-08-03T00:14:37;20.00;1.00
31991;DHT22;18508;49.386;8.370;2022-08-03T00:17:05;19.90;99.90
31991;DHT22;18508;49.386;8.370;2022-08-03T00:19:33;19.70;99.90
31991;DHT22;18508;49.386;8.370;2022-08-03T00:22:03;19.70;99.90
31991;DHT22;18508;49.386;8.370;2022-08-03T00:24:31;19.70;1.00
31991;DHT22;18508;49.386;8.370;2022-08-03T00:27:01;19.70;2.30
31991;DHT22;18508;49.386;8.370;2022-08-03T00:29:29;19.70;1.00
31991;DHT22;18508;49.386;8.370;2022-08-03T00:31:57;19.60;1.00
31991;DHT22;18508;49.386;8.370;2022-08-03T00:34:26;19.60;99.90
31991;DHT22;18508;49.386;8.370;2022-08-03T00:37:15;19.60;1.00
31991;DHT22;18508;49.386;8.370;2022-08-03T00:39:43;19.60;1.00
31991;DHT22;18508;49.386;8.370;2022-08-03T00:42:13;19.50;99.90
31991;DHT22;18508;49.386;8.370;2022-08-03T00:44:43;19.50;1.00
31991;DHT22;18508;49.386;8.370;2022-08-03T00:47:11;19.50;99.90
31991;DHT22;18508;49.386;8.370;2022-08-03T00:49:40;19.50;1.00
31991;DHT22;18508;49.386;8.370;2022-08-03T00:52:08;19.50;1.00
31991;DHT22;18508;49.386;8.370;2022-08-03T00:54:38;19.50;99.90
31991;DHT22;18508;49.386;8.370;2022-08-03T00:57:07;19.40;1.00
31991;DHT22;18508;49.386;8.370;2022-08-03T00:59:35;19.40;99.90
31991;DHT22;18508;49.386;8.370;2022-08-03T01:02:04;19.40;1.00
31991;DHT22;18508;49.386;8.370;2022-08-03T01:04:33;19.40;17.10
31991;DHT22;18508;49.386;8.370;2022-08-03T01:07:08;19.40;1.00
31991;DHT22;18508;49.386;8.370;2022-08-03T01:09:49;19.40;99.90
31991;DHT22;18508;49.386;8.370;2022-08-03T01:12:21;19.40;1.00
31991;DHT22;18508;49.386;8.370;2022-08-03T01:14:57;19.40;1.00
31991;DHT22;18508;49.386;8.370;2022-08-03T01:17:32;19.40;99.90
31991;DHT22;18508;49.386;8.370;2022-08-03T01:20:04;19.30;99.90
31991;DHT22;18508;49.386;8.370;2022-08-03T01:23:02;19.30;1.00
31991;DHT22;18508;49.386;8.370;2022-08-03T01:25:45;19.30;99.90
31991;DHT22;18508;49.386;8.370;2022-08-03T01:28:35;19.30;99.90
31991;DHT22;18508;49.386;8.370;2022-08-03T01:31:09;19.20;99.90
31991;DHT22;18508;49.386;8.370;2022-08-03T01:33:39;19.20;1.00
31991;DHT22;18508;49.386;8.370;2022-08-03T01:36:12;19.20;99.90
31991;DHT22;18508;49.386;8.370;2022-08-03T01:38:42;19.30;76.80
31991;DHT22;18508;49.386;8.370;2022-08-03T01:41:16;19.30;99.90
31991;DHT22;18508;49.386;8.370;2022-08-03T01:43:47;19.20;1.00
31991;DHT22;18508;49.386;8.370;2022-08-03T01:46:38;19.20;99.90
31991;DHT22;18508;49.386;8.370;2022-08-03T01:49:15;19.20;1.00
31991;DHT22;18508;49.386;8.370;2022-08-03T01:51:46;19.20;99.90
31991;DHT22;18508;49.386;8.370;2022-08-03T01:54:31;19.20;99.90
31991;DHT22;18508;49.386;8.370;2022-08-03T01:57:02;19.30;99.90
31991;DHT22;18508;49.386;8.370;2022-08-03T01:59:32;19.20;1.00
31991;DHT22;18508;49.386;8.370;2022-08-03T02:02:05;19.20;1.00
31991;DHT22;18508;49.386;8.370;2022-08-03T02:04:57;19.20;99.90
31991;DHT22;18508;49.386;8.370;2022-08-03T02:07:28;19.10;99.90
31991;DHT22;18508;49.386;8.370;2022-08-03T02:10:00;19.10;99.90
31991;DHT22;18508;49.386;8.370;2022-08-03T02:12:30;19.10;99.90
31991;DHT22;18508;49.386;8.370;2022-08-03T02:14:59;19.10;99.90
31991;DHT22;18508;49.386;8.370;2022-08-03T02:17:30;19.00;99.90
31991;DHT22;18508;49.386;8.370;2022-08-03T02:20:07;19.00;1.00
31991;DHT22;18508;49.386;8.370;2022-08-03T02:22:38;19.00;99.90
31991;DHT22;18508;49.386;8.370;2022-08-03T02:25:08;18.90;1.00
31991;DHT22;18508;49.386;8.370;2022-08-03T02:27:39;18.90;1.00
31991;DHT22;18508;49.386;8.370;2022-08-03T02:30:10;18.80;1.00
31991;DHT22;18508;49.386;8.370;2022-08-03T02:32:47;18.80;1.00
31991;DHT22;18508;49.386;8.370;2022-08-03T02:35:19;18.80;1.00
31991;DHT22;18508;49.386;8.370;2022-08-03T02:37:51;18.70;1.00
31991;DHT22;18508;49.386;8.370;2022-08-03T02:40:27;18.70;1.00
31991;DHT22;18508;49.386;8.370;2022-08-03T02:42:59;18.70;1.00
31991;DHT22;18508;49.386;8.370;2022-08-03T02:45:31;18.60;99.90
31991;DHT22;18508;49.386;8.370;2022-08-03T02:51:46;18.50;1.00
31991;DHT22;18508;49.386;8.370;2022-08-03T02:54:16;18.40;1.00
31991;DHT22;18508;49.386;8.370;2022-08-03T02:56:45;18.40;1.00
31991;DHT22;18508;49.386;8.370;2022-08-03T02:59:15;18.30;1.00
31991;DHT22;18508;49.386;8.370;2022-08-03T03:01:45;18.20;1.00
31991;DHT22;18508;49.386;8.370;2022-08-03T03:04:14;18.20;1.00
31991;DHT22;18508;49.386;8.370;2022-08-03T03:06:48;18.20;1.00
31991;DHT22;18508;49.386;8.370;2022-08-03T03:09:17;18.20;99.90
31991;DHT22;18508;49.386;8.370;2022-08-03T03:11:48;18.20;99.90
31991;DHT22;18508;49.386;8.370;2022-08-03T03:14:17;18.20;99.90
31991;DHT22;18508;49.386;8.370;2022-08-03T03:17:00;18.20;99.90
31991;DHT22;18508;49.386;8.370;2022-08-03T03:19:30;18.20;1.00
31991;DHT22;18508;49.386;8.370;2022-08-03T03:22:01;18.20;1.00
31991;DHT22;18508;49.386;8.370;2022-08-03T03:24:30;18.20;1.00
31991;DHT22;18508;49.386;8.370;2022-08-03T03:26:59;18.10;99.90
31991;DHT22;18508;49.386;8.370;2022-08-03T03:29:27;18.10;99.90
31991;DHT22;18508;49.386;8.370;2022-08-03T03:32:05;18.10;99.90
31991;DHT22;18508;49.386;8.370;2022-08-03T03:34:35;18.00;1.00
31991;DHT22;18508;49.386;8.370;2022-08-03T03:37:05;18.00;1.00
31991;DHT22;18508;49.386;8.370;2022-08-03T03:39:33;17.90;1.00
31991;DHT22;18508;49.386;8.370;2022-08-03T03:42:02;17.90;1.00
31991;DHT22;18508;49.386;8.370;2022-08-03T03:44:31;17.80;1.00
31991;DHT22;18508;49.386;8.370;2022-08-03T03:46:59;17.80;1.00
31991;DHT22;18508;49.386;8.370;2022-08-03T03:49:28;17.80;3.60
31991;DHT22;18508;49.386;8.370;2022-08-03T03:51:56;17.80;1.70
31991;DHT22;18508;49.386;8.370;2022-08-03T03:54:25;17.70;1.00
31991;DHT22;18508;49.386;8.370;2022-08-03T03:56:55;17.60;59.50
31991;DHT22;18508;49.386;8.370;2022-08-03T03:59:23;17.50;89.90
31991;DHT22;18508;49.386;8.370;2022-08-03T04:01:51;17.50;50.30
31991;DHT22;18508;49.386;8.370;2022-08-03T04:04:25;17.40;90.60
31991;DHT22;18508;49.386;8.370;2022-08-03T04:07:10;17.40;60.50
31991;DHT22;18508;49.386;8.370;2022-08-03T04:09:57;17.40;96.70
31991;DHT22;18508;49.386;8.370;2022-08-03T04:12:43;17.30;97.50
31991;DHT22;18508;49.386;8.370;2022-08-03T04:15:17;17.30;29.50
31991;DHT22;18508;49.386;8.370;2022-08-03T04:17:46;17.20;61.30
31991;DHT22;18508;49.386;8.370;2022-08-03T04:20:17;17.30;46.00
31991;DHT22;18508;49.386;8.370;2022-08-03T04:22:48;17.30;20.60
31991;DHT22;18508;49.386;8.370;2022-08-03T04:25:20;17.30;31.60
31991;DHT22;18508;49.386;8.370;2022-08-03T04:27:49;17.30;52.70
31991;DHT22;18508;49.386;8.370;2022-08-03T04:30:44;17.40;28.00
31991;DHT22;18508;49.386;8.370;2022-08-03T04:33:15;17.40;34.70
31991;DHT22;18508;49.386;8.370;2022-08-03T04:35:46;17.40;54.30
31991;DHT22;18508;49.386;8.370;2022-08-03T04:38:30;17.50;99.90
31991;DHT22;18508;49.386;8.370;2022-08-03T04:41:01;17.60;43.10
31991;DHT22;18508;49.386;8.370;2022-08-03T04:43:31;17.60;95.00
31991;DHT22;18508;49.386;8.370;2022-08-03T04:46:00;17.60;99.90
31991;DHT22;18508;49.386;8.370;2022-08-03T04:48:28;17.70;1.00
31991;DHT22;18508;49.386;8.370;2022-08-03T04:50:57;17.70;30.70
31991;DHT22;18508;49.386;8.370;2022-08-03T04:53:26;17.80;29.00
31991;DHT22;18508;49.386;8.370;2022-08-03T04:55:54;17.80;39.00
31991;DHT22;18508;49.386;8.370;2022-08-03T04:58:28;17.90;12.00
31991;DHT22;18508;49.386;8.370;2022-08-03T05:00:56;18.00;13.80
31991;DHT22;18508;49.386;8.370;2022-08-03T05:03:24;18.00;1.00
31991;DHT22;18508;49.386;8.370;2022-08-03T05:05:53;18.10;1.00
31991;DHT22;18508;49.386;8.370;2022-08-03T05:08:35;18.20;1.00
31991;DHT22;18508;49.386;8.370;2022-08-03T05:11:13;18.20;1.00
31991;DHT22;18508;49.386;8.370;2022-08-03T05:13:42;18.30;1.00
31991;DHT22;18508;49.386;8.370;2022-08-03T05:16:11;18.40;1.00
31991;DHT22;18508;49.386;8.370;2022-08-03T05:18:39;18.50;1.00
31991;DHT22;18508;49.386;8.370;2022-08-03T05:21:07;18.60;1.00
31991;DHT22;18508;49.386;8.370;2022-08-03T05:23:36;18.70;1.00
31991;DHT22;18508;49.386;8.370;2022-08-03T05:26:04;18.80;1.00
31991;DHT22;18508;49.386;8.370;2022-08-03T05:28:32;18.90;1.00
31991;DHT22;18508;49.386;8.370;2022-08-03T05:31:01;19.00;1.00
31991;DHT22;18508;49.386;8.370;2022-08-03T05:33:29;19.10;1.00
31991;DHT22;18508;49.386;8.370;2022-08-03T05:35:57;19.30;1.00
31991;DHT22;18508;49.386;8.370;2022-08-03T05:38:30;19.40;1.00
31991;DHT22;18508;49.386;8.370;2022-08-03T05:41:01;19.60;99.90
31991;DHT22;18508;49.386;8.370;2022-08-03T05:43:49;19.70;99.90
31991;DHT22;18508;49.386;8.370;2022-08-03T05:46:18;19.90;99.90
31991;DHT22;18508;49.386;8.370;2022-08-03T05:48:47;20.00;99.90
31991;DHT22;18508;49.386;8.370;2022-08-03T05:51:15;20.20;93.50
31991;DHT22;18508;49.386;8.370;2022-08-03T05:53:43;20.40;96.90
31991;DHT22;18508;49.386;8.370;2022-08-03T05:56:11;20.50;98.90
31991;DHT22;18508;49.386;8.370;2022-08-03T05:58:43;20.70;97.60
31991;DHT22;18508;49.386;8.370;2022-08-03T06:01:11;20.90;95.00
31991;DHT22;18508;49.386;8.370;2022-08-03T06:03:41;21.00;92.40
31991;DHT22;18508;49.386;8.370;2022-08-03T06:06:09;21.10;85.10
31991;DHT22;18508;49.386;8.370;2022-08-03T06:08:37;21.30;67.00
31991;DHT22;18508;49.386;8.370;2022-08-03T06:11:05;21.40;63.00
31991;DHT22;18508;49.386;8.370;2022-08-03T06:13:34;21.60;46.50
31991;DHT22;18508;49.386;8.370;2022-08-03T06:16:02;21.70;41.30
31991;DHT22;18508;49.386;8.370;2022-08-03T06:18:30;21.80;35.70
31991;DHT22;18508;49.386;8.370;2022-08-03T06:20:59;22.00;35.00
31991;DHT22;18508;49.386;8.370;2022-08-03T06:23:42;22.10;28.60
31991;DHT22;18508;49.386;8.370;2022-08-03T06:26:19;22.20;25.60
31991;DHT22;18508;49.386;8.370;2022-08-03T06:28:47;22.40;26.30
31991;DHT22;18508;49.386;8.370;2022-08-03T06:31:19;22.50;41.50
31991;DHT22;18508;49.386;8.370;2022-08-03T06:33:48;22.60;34.80
31991;DHT22;18508;49.386;8.370;2022-08-03T06:36:37;22.70;37.80
31991;DHT22;18508;49.386;8.370;2022-08-03T06:39:05;22.80;35.90
31991;DHT22;18508;49.386;8.370;2022-08-03T06:41:34;22.90;28.70
31991;DHT22;18508;49.386;8.370;2022-08-03T06:44:10;23.10;23.80
31991;DHT22;18508;49.386;8.370;2022-08-03T06:46:38;23.20;22.10
31991;DHT22;18508;49.386;8.370;2022-08-03T06:49:06;23.30;20.00
31991;DHT22;18508;49.386;8.370;2022-08-03T06:51:34;23.40;19.00
31991;DHT22;18508;49.386;8.370;2022-08-03T06:54:24;23.40;19.80
31991;DHT22;18508;49.386;8.370;2022-08-03T06:56:53;23.60;19.80
31991;DHT22;18508;49.386;8.370;2022-08-03T06:59:21;23.70;15.10
31991;DHT22;18508;49.386;8.370;2022-08-03T07:02:09;23.80;12.70
31991;DHT22;18508;49.386;8.370;2022-08-03T07:04:37;24.00;10.80
31991;DHT22;18508;49.386;8.370;2022-08-03T07:07:05;24.10;8.90
31991;DHT22;18508;49.386;8.370;2022-08-03T07:09:34;24.20;8.40
31991;DHT22;18508;49.386;8.370;2022-08-03T07:12:03;24.30;6.00
31991;DHT22;18508;49.386;8.370;2022-08-03T07:14:32;24.40;4.50
31991;DHT22;18508;49.386;8.370;2022-08-03T07:17:00;24.50;3.80
31991;DHT22;18508;49.386;8.370;2022-08-03T07:19:37;24.70;2.30
31991;DHT22;18508;49.386;8.370;2022-08-03T07:22:05;24.70;1.00
31991;DHT22;18508;49.386;8.370;2022-08-03T07:24:36;24.80;1.00
31991;DHT22;18508;49.386;8.370;2022-08-03T07:27:04;24.90;1.00
31991;DHT22;18508;49.386;8.370;2022-08-03T07:29:33;25.00;1.00
31991;DHT22;18508;49.386;8.370;2022-08-03T07:32:01;25.10;1.00
31991;DHT22;18508;49.386;8.370;2022-08-03T07:34:30;25.20;1.00
31991;DHT22;18508;49.386;8.370;2022-08-03T07:36:58;25.30;1.00
31991;DHT22;18508;49.386;8.370;2022-08-03T07:39:26;25.40;1.00
31991;DHT22;18508;49.386;8.370;2022-08-03T07:41:56;25.60;1.00
31991;DHT22;18508;49.386;8.370;2022-08-03T07:44:24;25.60;1.00
31991;DHT22;18508;49.386;8.370;2022-08-03T07:46:52;25.60;1.00
31991;DHT22;18508;49.386;8.370;2022-08-03T07:49:22;25.70;1.00
31991;DHT22;18508;49.386;8.370;2022-08-03T07:51:50;25.80;1.00
31991;DHT22;18508;49.386;8.370;2022-08-03T07:54:32;25.90;1.00
31991;DHT22;18508;49.386;8.370;2022-08-03T07:57:02;26.00;1.00
31991;DHT22;18508;49.386;8.370;2022-08-03T07:59:30;26.10;1.00
31991;DHT22;18508;49.386;8.370;2022-08-03T08:02:18;26.20;1.00
31991;DHT22;18508;49.386;8.370;2022-08-03T08:04:47;26.40;1.00
31991;DHT22;18508;49.386;8.370;2022-08-03T08:07:15;26.40;1.00
31991;DHT22;18508;49.386;8.370;2022-08-03T08:09:46;26.40;1.00
31991;DHT22;18508;49.386;8.370;2022-08-03T08:12:15;26.60;1.00
31991;DHT22;18508;49.386;8.370;2022-08-03T08:14:44;26.70;1.00
31991;DHT22;18508;49.386;8.370;2022-08-03T08:17:12;26.80;1.00
31991;DHT22;18508;49.386;8.370;2022-08-03T08:19:40;26.90;1.00
31991;DHT22;18508;49.386;8.370;2022-08-03T08:22:17;27.00;1.00
31991;DHT22;18508;49.386;8.370;2022-08-03T08:24:56;27.00;1.00
31991;DHT22;18508;49.386;8.370;2022-08-03T08:27:26;27.00;1.00
31991;DHT22;18508;49.386;8.370;2022-08-03T08:30:16;27.10;1.00
31991;DHT22;18508;49.386;8.370;2022-08-03T08:32:45;27.20;1.00
31991;DHT22;18508;49.386;8.370;2022-08-03T08:35:14;27.30;1.00
31991;DHT22;18508;49.386;8.370;2022-08-03T08:37:42;27.20;1.00
31991;DHT22;18508;49.386;8.370;2022-08-03T08:40:19;27.30;1.00
31991;DHT22;18508;49.386;8.370;2022-08-03T08:42:50;27.40;1.00
31991;DHT22;18508;49.386;8.370;2022-08-03T08:45:26;27.50;1.00
31991;DHT22;18508;49.386;8.370;2022-08-03T08:47:54;27.60;1.00
31991;DHT22;18508;49.386;8.370;2022-08-03T08:50:31;27.60;1.00
31991;DHT22;18508;49.386;8.370;2022-08-03T08:53:01;27.70;1.00
31991;DHT22;18508;49.386;8.370;2022-08-03T08:55:30;27.90;1.00
31991;DHT22;18508;49.386;8.370;2022-08-03T08:58:20;28.00;1.00
31991;DHT22;18508;49.386;8.370;2022-08-03T09:00:50;28.10;1.00
31991;DHT22;18508;49.386;8.370;2022-08-03T09:03:18;28.20;1.00
31991;DHT22;18508;49.386;8.370;2022-08-03T09:05:55;28.20;1.00
31991;DHT22;18508;49.386;8.370;2022-08-03T09:08:24;28.30;1.00
31991;DHT22;18508;49.386;8.370;2022-08-03T09:10:52;28.50;1.00
31991;DHT22;18508;49.386;8.370;2022-08-03T09:13:21;28.40;1.00
31991;DHT22;18508;49.386;8.370;2022-08-03T09:16:08;28.60;1.00
31991;DHT22;18508;49.386;8.370;2022-08-03T09:18:37;28.80;1.00
31991;DHT22;18508;49.386;8.370;2022-08-03T09:21:18;28.70;1.00
31991;DHT22;18508;49.386;8.370;2022-08-03T09:24:03;28.90;1.00
31991;DHT22;18508;49.386;8.370;2022-08-03T09:26:49;28.90;1.00
31991;DHT22;18508;49.386;8.370;2022-08-03T09:29:21;29.10;1.00
31991;DHT22;18508;49.386;8.370;2022-08-03T09:31:59;29.20;1.00
31991;DHT22;18508;49.386;8.370;2022-08-03T09:34:28;29.40;1.00
31991;DHT22;18508;49.386;8.370;2022-08-03T09:36:57;29.50;1.00
31991;DHT22;18508;49.386;8.370;2022-08-03T09:39:26;29.60;1.00
31991;DHT22;18508;49.386;8.370;2022-08-03T09:42:08;29.70;1.00
31991;DHT22;18508;49.386;8.370;2022-08-03T09:44:43;29.80;1.00
31991;DHT22;18508;49.386;8.370;2022-08-03T09:47:12;29.70;1.00
31991;DHT22;18508;49.386;8.370;2022-08-03T09:49:57;29.80;1.00
31991;DHT22;18508;49.386;8.370;2022-08-03T09:52:32;29.90;1.00
31991;DHT22;18508;49.386;8.370;2022-08-03T09:55:16;30.00;1.00
31991;DHT22;18508;49.386;8.370;2022-08-03T09:58:06;30.20;1.00
31991;DHT22;18508;49.386;8.370;2022-08-03T10:00:52;30.30;1.00
31991;DHT22;18508;49.386;8.370;2022-08-03T10:03:21;30.50;1.00
31991;DHT22;18508;49.386;8.370;2022-08-03T10:05:50;30.60;1.00
31991;DHT22;18508;49.386;8.370;2022-08-03T10:08:25;30.70;1.00
31991;DHT22;18508;49.386;8.370;2022-08-03T10:10:53;30.70;1.00
31991;DHT22;18508;49.386;8.370;2022-08-03T10:13:24;30.80;1.00
31991;DHT22;18508;49.386;8.370;2022-08-03T10:15:53;30.80;1.00
31991;DHT22;18508;49.386;8.370;2022-08-03T10:18:41;30.90;1.00
31991;DHT22;18508;49.386;8.370;2022-08-03T10:21:12;31.00;1.00
31991;DHT22;18508;49.386;8.370;2022-08-03T10:23:43;31.10;1.00
31991;DHT22;18508;49.386;8.370;2022-08-03T10:26:15;31.00;1.00
31991;DHT22;18508;49.386;8.370;2022-08-03T10:28:48;31.20;1.00
31991;DHT22;18508;49.386;8.370;2022-08-03T10:31:19;31.20;1.00
31991;DHT22;18508;49.386;8.370;2022-08-03T10:33:51;31.30;1.00
31991;DHT22;18508;49.386;8.370;2022-08-03T10:36:22;31.30;1.00
31991;DHT22;18508;49.386;8.370;2022-08-03T10:38:51;31.30;1.00
31991;DHT22;18508;49.386;8.370;2022-08-03T10:41:21;31.40;1.00
31991;DHT22;18508;49.386;8.370;2022-08-03T10:43:53;31.30;1.00
31991;DHT22;18508;49.386;8.370;2022-08-03T10:46:25;31.30;1.00
31991;DHT22;18508;49.386;8.370;2022-08-03T10:48:54;31.30;1.00
31991;DHT22;18508;49.386;8.370;2022-08-03T10:51:23;31.50;1.00
31991;DHT22;18508;49.386;8.370;2022-08-03T10:53:54;31.70;1.00
31991;DHT22;18508;49.386;8.370;2022-08-03T10:56:40;31.90;1.00
31991;DHT22;18508;49.386;8.370;2022-08-03T10:59:59;32.10;1.00
31991;DHT22;18508;49.386;8.370;2022-08-03T11:03:06;32.20;1.00
31991;DHT22;18508;49.386;8.370;2022-08-03T11:05:37;32.20;1.00
31991;DHT22;18508;49.386;8.370;2022-08-03T11:08:27;32.10;1.00
31991;DHT22;18508;49.386;8.370;2022-08-03T11:11:00;32.10;1.00
31991;DHT22;18508;49.386;8.370;2022-08-03T11:13:29;32.30;1.00
31991;DHT22;18508;49.386;8.370;2022-08-03T11:16:03;32.30;1.00
31991;DHT22;18508;49.386;8.370;2022-08-03T11:18:57;32.30;1.00
31991;DHT22;18508;49.386;8.370;2022-08-03T11:21:56;32.40;1.00
31991;DHT22;18508;49.386;8.370;2022-08-03T11:24:59;32.50;1.00
31991;DHT22;18508;49.386;8.370;2022-08-03T11:27:29;32.60;1.00
31991;DHT22;18508;49.386;8.370;2022-08-03T11:30:00;32.70;1.00
31991;DHT22;18508;49.386;8.370;2022-08-03T11:32:49;32.70;1.00
31991;DHT22;18508;49.386;8.370;2022-08-03T11:35:20;32.80;1.00
31991;DHT22;18508;49.386;8.370;2022-08-03T11:38:05;32.90;1.00
31991;DHT22;18508;49.386;8.370;2022-08-03T11:40:37;33.00;1.00
31991;DHT22;18508;49.386;8.370;2022-08-03T11:43:06;33.10;1.00
31991;DHT22;18508;49.386;8.370;2022-08-03T11:45:35;33.30;1.00
31991;DHT22;18508;49.386;8.370;2022-08-03T11:48:13;33.30;1.00
31991;DHT22;18508;49.386;8.370;2022-08-03T11:50:43;33.20;1.00
31991;DHT22;18508;49.386;8.370;2022-08-03T11:53:13;33.40;1.00
31991;DHT22;18508;49.386;8.370;2022-08-03T11:55:42;33.50;1.00
31991;DHT22;18508;49.386;8.370;2022-08-03T11:58:15;33.50;1.00
31991;DHT22;18508;49.386;8.370;2022-08-03T12:01:05;33.50;1.00
31991;DHT22;18508;49.386;8.370;2022-08-03T12:03:34;33.40;1.00
31991;DHT22;18508;49.386;8.370;2022-08-03T12:06:08;33.70;1.00
31991;DHT22;18508;49.386;8.370;2022-08-03T12:08:37;33.90;1.00
31991;DHT22;18508;49.386;8.370;2022-08-03T12:11:08;33.90;1.00
31991;DHT22;18508;49.386;8.370;2022-08-03T12:13:40;34.30;1.00
31991;DHT22;18508;49.386;8.370;2022-08-03T12:16:28;34.40;1.00
31991;DHT22;18508;49.386;8.370;2022-08-03T12:18:58;34.60;1.00
31991;DHT22;18508;49.386;8.370;2022-08-03T12:21:28;34.60;1.00
31991;DHT22;18508;49.386;8.370;2022-08-03T12:23:57;34.70;1.00
31991;DHT22;18508;49.386;8.370;2022-08-03T12:26:27;34.70;1.00
31991;DHT22;18508;49.386;8.370;2022-08-03T12:28:55;34.70;1.00
31991;DHT22;18508;49.386;8.370;2022-08-03T12:32:01;34.60;1.00
31991;DHT22;18508;49.386;8.370;2022-08-03T12:34:44;34.80;1.00
31991;DHT22;18508;49.386;8.370;2022-08-03T12:37:17;34.40;1.00
31991;DHT22;18508;49.386;8.370;2022-08-03T12:39:49;34.80;1.00
31991;DHT22;18508;49.386;8.370;2022-08-03T12:42:32;35.20;1.00
31991;DHT22;18508;49.386;8.370;2022-08-03T12:45:19;35.30;1.00
31991;DHT22;18508;49.386;8.370;2022-08-03T12:47:52;35.30;99.90
31991;DHT22;18508;49.386;8.370;2022-08-03T12:50:25;35.20;99.90
31991;DHT22;18508;49.386;8.370;2022-08-03T12:52:56;35.30;99.90
31991;DHT22;18508;49.386;8.370;2022-08-03T12:55:25;35.40;99.90
31991;DHT22;18508;49.386;8.370;2022-08-03T12:58:29;35.30;99.90
31991;DHT22;18508;49.386;8.370;2022-08-03T13:00:59;35.50;99.90
31991;DHT22;18508;49.386;8.370;2022-08-03T13:03:39;35.60;99.90
31991;DHT22;18508;49.386;8.370;2022-08-03T13:06:12;35.50;99.90
31991;DHT22;18508;49.386;8.370;2022-08-03T13:09:02;35.40;99.90
31991;DHT22;18508;49.386;8.370;2022-08-03T13:11:33;35.50;99.90
31991;DHT22;18508;49.386;8.370;2022-08-03T13:14:21;35.70;99.90
31991;DHT22;18508;49.386;8.370;2022-08-03T13:16:50;35.80;99.90
31991;DHT22;18508;49.386;8.370;2022-08-03T13:19:18;35.80;99.90
31991;DHT22;18508;49.386;8.370;2022-08-03T13:21:46;35.90;99.90
31991;DHT22;18508;49.386;8.370;2022-08-03T13:24:32;35.90;99.90
31991;DHT22;18508;49.386;8.370;2022-08-03T13:27:00;36.00;99.90
31991;DHT22;18508;49.386;8.370;2022-08-03T13:29:48;35.60;99.90
31991;DHT22;18508;49.386;8.370;2022-08-03T13:32:16;35.90;99.90
31991;DHT22;18508;49.386;8.370;2022-08-03T13:34:44;36.30;99.90
31991;DHT22;18508;49.386;8.370;2022-08-03T13:37:13;36.50;99.90
31991;DHT22;18508;49.386;8.370;2022-08-03T13:39:45;36.90;99.90
31991;DHT22;18508;49.386;8.370;2022-08-03T13:42:26;36.90;99.90
31991;DHT22;18508;49.386;8.370;2022-08-03T13:44:54;37.10;99.90
31991;DHT22;18508;49.386;8.370;2022-08-03T13:47:22;37.20;99.90
31991;DHT22;18508;49.386;8.370;2022-08-03T13:49:50;37.70;99.90
31991;DHT22;18508;49.386;8.370;2022-08-03T13:52:28;38.10;99.90
31991;DHT22;18508;49.386;8.370;2022-08-03T13:54:57;38.70;99.90
31991;DHT22;18508;49.386;8.370;2022-08-03T13:57:26;39.40;99.90
31991;DHT22;18508;49.386;8.370;2022-08-03T14:00:15;39.70;99.90
31991;DHT22;18508;49.386;8.370;2022-08-03T14:02:55;40.10;99.90
31991;DHT22;18508;49.386;8.370;2022-08-03T14:05:31;40.30;99.90
31991;DHT22;18508;49.386;8.370;2022-08-03T14:07:59;40.80;99.90
31991;DHT22;18508;49.386;8.370;2022-08-03T14:10:33;41.00;99.90
31991;DHT22;18508;49.386;8.370;2022-08-03T14:13:02;41.70;99.90
31991;DHT22;18508;49.386;8.370;2022-08-03T14:15:32;41.90;99.90
31991;DHT22;18508;49.386;8.370;2022-08-03T14:18:05;42.00;99.90
31991;DHT22;18508;49.386;8.370;2022-08-03T14:20:41;41.50;99.90
31991;DHT22;18508;49.386;8.370;2022-08-03T14:23:17;42.10;99.90
31991;DHT22;18508;49.386;8.370;2022-08-03T14:25:46;42.10;99.90
31991;DHT22;18508;49.386;8.370;2022-08-03T14:28:19;42.20;99.90
31991;DHT22;18508;49.386;8.370;2022-08-03T14:30:49;42.50;99.90
31991;DHT22;18508;49.386;8.370;2022-08-03T14:33:18;42.20;99.90
31991;DHT22;18508;49.386;8.370;2022-08-03T14:35:46;42.20;99.90
31991;DHT22;18508;49.386;8.370;2022-08-03T14:38:16;42.00;99.90
31991;DHT22;18508;49.386;8.370;2022-08-03T14:40:45;42.00;99.90
31991;DHT22;18508;49.386;8.370;2022-08-03T14:43:14;42.40;99.90
31991;DHT22;18508;49.386;8.370;2022-08-03T14:45:43;42.40;99.90
31991;DHT22;18508;49.386;8.370;2022-08-03T14:48:12;42.70;99.90
31991;DHT22;18508;49.386;8.370;2022-08-03T14:51:00;42.60;99.90
31991;DHT22;18508;49.386;8.370;2022-08-03T14:53:28;43.10;99.90
31991;DHT22;18508;49.386;8.370;2022-08-03T14:55:57;43.10;99.90
31991;DHT22;18508;49.386;8.370;2022-08-03T14:58:25;43.20;99.90
31991;DHT22;18508;49.386;8.370;2022-08-03T15:00:54;43.20;99.90
31991;DHT22;18508;49.386;8.370;2022-08-03T15:03:24;43.10;99.90
31991;DHT22;18508;49.386;8.370;2022-08-03T15:05:53;42.50;99.90
31991;DHT22;18508;49.386;8.370;2022-08-03T15:08:23;42.80;99.90
31991;DHT22;18508;49.386;8.370;2022-08-03T15:10:52;42.60;99.90
31991;DHT22;18508;49.386;8.370;2022-08-03T15:13:22;43.30;99.90
31991;DHT22;18508;49.386;8.370;2022-08-03T15:15:51;42.80;99.90
31991;DHT22;18508;49.386;8.370;2022-08-03T15:18:19;42.60;99.90
31991;DHT22;18508;49.386;8.370;2022-08-03T15:20:47;43.50;99.90
31991;DHT22;18508;49.386;8.370;2022-08-03T15:23:17;43.10;99.90
31991;DHT22;18508;49.386;8.370;2022-08-03T15:25:46;43.10;99.90
31991;DHT22;18508;49.386;8.370;2022-08-03T15:28:36;43.70;99.90
31991;DHT22;18508;49.386;8.370;2022-08-03T15:31:04;43.50;99.90
31991;DHT22;18508;49.386;8.370;2022-08-03T15:33:33;42.70;99.90
31991;DHT22;18508;49.386;8.370;2022-08-03T15:36:02;43.50;99.90
31991;DHT22;18508;49.386;8.370;2022-08-03T15:38:29;43.80;99.90
31991;DHT22;18508;49.386;8.370;2022-08-03T15:40:57;43.70;99.90
31991;DHT22;18508;49.386;8.370;2022-08-03T15:43:25;44.20;99.90
31991;DHT22;18508;49.386;8.370;2022-08-03T15:45:55;44.40;99.90
31991;DHT22;18508;49.386;8.370;2022-08-03T15:48:44;44.30;99.90
31991;DHT22;18508;49.386;8.370;2022-08-03T15:51:12;44.20;99.90
31991;DHT22;18508;49.386;8.370;2022-08-03T15:53:40;44.30;99.90
31991;DHT22;18508;49.386;8.370;2022-08-03T15:56:09;44.30;99.90
31991;DHT22;18508;49.386;8.370;2022-08-03T15:58:44;44.20;99.90
31991;DHT22;18508;49.386;8.370;2022-08-03T16:01:33;44.30;99.90
31991;DHT22;18508;49.386;8.370;2022-08-03T16:04:02;44.20;99.90
31991;DHT22;18508;49.386;8.370;2022-08-03T16:06:30;43.80;99.90
31991;DHT22;18508;49.386;8.370;2022-08-03T16:09:03;44.30;99.90
31991;DHT22;18508;49.386;8.370;2022-08-03T16:11:52;44.60;99.90
31991;DHT22;18508;49.386;8.370;2022-08-03T16:14:20;44.50;99.90
31991;DHT22;18508;49.386;8.370;2022-08-03T16:17:02;44.90;99.90
31991;DHT22;18508;49.386;8.370;2022-08-03T16:19:30;44.30;99.90